Time,TemperatureF,DewpointF,PressureIn,WindDirection,WindDirectionDegrees,WindSpeedMPH,WindSpeedGustMPH,Humidity,HourlyPrecipIn,Conditions,Clouds,dailyrainin,SoftwareType,DateUTC
2013-10-11 00:13:00,57.7,52.0,30.06,SE,127,0.0,1.0,81,0.00,,,0.00,weatherlink.com 1.10,2013-10-11 05:13:00,
2013-10-11 00:28:00,57.4,52.0,30.05,SE,126,0.0,3.0,82,0.00,,,0.00,weatherlink.com 1.10,2013-10-11 05:28:00,
2013-10-11 00:43:00,57.6,52.0,30.05,SE,125,0.0,3.0,82,0.00,,,0.00,weatherlink.com 1.10,2013-10-11 05:43:00,
2013-10-11 00:58:00,57.3,52.0,30.05,SE,131,1.0,4.0,82,0.00,,,0.00,weatherlink.com 1.10,2013-10-11 05:58:00,
2013-10-11 01:13:00,57.1,52.0,30.05,SE,124,2.0,3.0,83,0.00,,,0.00,weatherlink.com 1.10,2013-10-11 06:13:00,
2013-10-11 01:28:00,56.9,52.0,30.05,SE,130,2.0,4.0,83,0.00,,,0.00,weatherlink.com 1.10,2013-10-11 06:28:00,
2013-10-11 01:43:00,56.8,52.0,30.04,SE,128,1.0,4.0,84,0.00,,,0.00,weatherlink.com 1.10,2013-10-11 06:43:00,
2013-10-11 01:58:00,56.6,52.0,30.04,SE,130,0.0,5.0,84,0.00,,,0.00,weatherlink.com 1.10,2013-10-11 06:58:00,
2013-10-11 02:13:00,56.3,52.0,30.04,ESE,120,0.0,3.0,84,0.00,,,0.00,weatherlink.com 1.10,2013-10-11 07:13:00,
2013-10-11 02:28:00,56.0,52.0,30.04,SE,125,0.0,3.0,85,0.00,,,0.00,weatherlink.com 1.10,2013-10-11 07:28:00,
2013-10-11 02:43:00,55.9,52.0,30.05,SE,144,0.0,3.0,85,0.00,,,0.00,weatherlink.com 1.10,2013-10-11 07:43:00,
2013-10-11 02:58:00,55.8,51.0,30.05,SE,140,0.0,1.0,85,0.00,,,0.00,weatherlink.com 1.10,2013-10-11 07:58:00,
2013-10-11 03:13:00,55.5,51.0,30.05,SE,140,0.0,1.0,86,0.00,,,0.00,weatherlink.com 1.10,2013-10-11 08:13:00,
2013-10-11 03:28:00,56.2,52.0,30.05,SSE,154,0.0,3.0,86,0.00,,,0.00,weatherlink.com 1.10,2013-10-11 08:28:00,
2013-10-11 03:43:00,57.1,52.0,30.05,SSE,150,0.0,3.0,84,0.00,,,0.00,weatherlink.com 1.10,2013-10-11 08:43:00,
2013-10-11 03:58:00,57.1,52.0,30.05,SE,142,2.0,4.0,83,0.00,,,0.00,weatherlink.com 1.10,2013-10-11 08:58:00,
2013-10-11 04:13:00,56.6,52.0,30.05,SSE,153,1.0,2.0,84,0.00,,,0.00,weatherlink.com 1.10,2013-10-11 09:13:00,
2013-10-11 04:28:00,56.0,52.0,30.05,SSE,153,0.0,2.0,85,0.00,,,0.00,weatherlink.com 1.10,2013-10-11 09:28:00,
2013-10-11 04:43:00,55.5,51.0,30.06,SSE,153,0.0,0.0,86,0.00,,,0.00,weatherlink.com 1.10,2013-10-11 09:43:00,
2013-10-11 04:58:00,55.2,51.0,30.05,SE,146,0.0,1.0,87,0.00,,,0.00,weatherlink.com 1.10,2013-10-11 09:58:00,
2013-10-11 05:13:00,54.9,51.0,30.05,SE,143,0.0,0.0,86,0.00,,,0.00,weatherlink.com 1.10,2013-10-11 10:13:00,
2013-10-11 05:28:00,53.7,51.0,30.04,SE,143,0.0,0.0,90,0.00,,,0.00,weatherlink.com 1.10,2013-10-11 10:28:00,
2013-10-11 05:44:00,54.6,52.0,30.05,SE,139,0.0,3.0,91,0.00,,,0.00,weatherlink.com 1.10,2013-10-11 10:44:00,
2013-10-11 05:59:00,54.6,52.0,30.05,SE,134,0.0,3.0,89,0.00,,,0.00,weatherlink.com 1.10,2013-10-11 10:59:00,
2013-10-11 06:14:00,54.5,52.0,30.05,SE,140,0.0,0.0,90,0.00,,,0.00,weatherlink.com 1.10,2013-10-11 11:14:00,
2013-10-11 06:29:00,54.6,52.0,30.05,SSE,150,0.0,2.0,91,0.00,,,0.00,weatherlink.com 1.10,2013-10-11 11:29:00,
2013-10-11 06:44:00,55.4,53.0,30.05,SSE,155,1.0,5.0,90,0.00,,,0.00,weatherlink.com 1.10,2013-10-11 11:44:00,
2013-10-11 06:59:00,55.4,52.0,30.05,SE,140,2.0,4.0,89,0.00,,,0.00,weatherlink.com 1.10,2013-10-11 11:59:00,
2013-10-11 07:14:00,55.2,52.0,30.05,SSE,162,0.0,4.0,90,0.00,,,0.00,weatherlink.com 1.10,2013-10-11 12:14:00,
2013-10-11 07:29:00,55.1,52.0,30.05,SSE,155,2.0,3.0,90,0.00,,,0.00,weatherlink.com 1.10,2013-10-11 12:29:00,
2013-10-11 07:44:00,55.2,52.0,30.05,SSE,162,2.0,4.0,90,0.00,,,0.00,weatherlink.com 1.10,2013-10-11 12:44:00,
2013-10-11 07:59:00,55.8,53.0,30.05,SE,144,1.0,4.0,90,0.00,,,0.00,weatherlink.com 1.10,2013-10-11 12:59:00,
2013-10-11 08:14:00,56.5,53.0,30.06,SSE,163,4.0,6.0,89,0.00,,,0.00,weatherlink.com 1.10,2013-10-11 13:14:00,
2013-10-11 08:29:00,56.6,54.0,30.06,SSE,161,3.0,5.0,89,0.00,,,0.00,weatherlink.com 1.10,2013-10-11 13:29:00,
2013-10-11 08:44:00,56.7,54.0,30.06,SSE,157,2.0,4.0,89,0.00,,,0.00,weatherlink.com 1.10,2013-10-11 13:44:00,
2013-10-11 08:59:00,57.1,54.0,30.06,SSE,167,3.0,4.0,88,0.00,,,0.00,weatherlink.com 1.10,2013-10-11 13:59:00,
2013-10-11 09:14:00,57.6,54.0,30.06,SSE,163,3.0,5.0,88,0.00,,,0.00,weatherlink.com 1.10,2013-10-11 14:14:00,
2013-10-11 09:29:00,58.6,55.0,30.06,SSE,161,2.0,5.0,87,0.00,,,0.00,weatherlink.com 1.10,2013-10-11 14:29:00,
2013-10-11 09:44:00,59.9,56.0,30.06,South,173,2.0,5.0,86,0.00,,,0.00,weatherlink.com 1.10,2013-10-11 14:44:00,
2013-10-11 09:59:00,60.5,56.0,30.05,SE,128,1.0,5.0,85,0.00,,,0.00,weatherlink.com 1.10,2013-10-11 14:59:00,
2013-10-11 10:14:00,61.7,57.0,30.05,SSW,204,3.0,5.0,85,0.00,,,0.00,weatherlink.com 1.10,2013-10-11 15:14:00,
2013-10-11 10:29:00,63.1,58.0,30.05,South,175,0.0,5.0,83,0.00,,,0.00,weatherlink.com 1.10,2013-10-11 15:29:00,
2013-10-11 10:44:00,65.6,59.0,30.05,SSE,152,3.0,5.0,78,0.00,,,0.00,weatherlink.com 1.10,2013-10-11 15:44:00,
2013-10-11 10:59:00,67.6,59.0,30.03,SE,142,2.0,9.0,75,0.00,,,0.00,weatherlink.com 1.10,2013-10-11 15:59:00,
2013-10-11 11:14:00,68.9,59.0,30.03,SE,128,4.0,7.0,71,0.00,,,0.00,weatherlink.com 1.10,2013-10-11 16:14:00,
2013-10-11 11:29:00,69.1,59.0,30.04,SE,135,3.0,7.0,70,0.00,,,0.00,weatherlink.com 1.10,2013-10-11 16:29:00,
2013-10-11 11:44:00,70.1,59.0,30.03,South,182,5.0,12.0,67,0.00,,,0.00,weatherlink.com 1.10,2013-10-11 16:44:00,
2013-10-11 11:59:00,70.8,58.0,30.03,SSE,165,8.0,12.0,65,0.00,,,0.00,weatherlink.com 1.10,2013-10-11 16:59:00,
2013-10-11 12:14:00,71.3,57.0,30.02,South,175,9.0,13.0,62,0.00,,,0.00,weatherlink.com 1.10,2013-10-11 17:14:00,
2013-10-11 12:29:00,71.9,57.0,30.01,SSE,148,8.0,14.0,60,0.00,,,0.00,weatherlink.com 1.10,2013-10-11 17:29:00,
2013-10-11 12:44:00,72.2,58.0,30.00,South,169,7.0,12.0,61,0.00,,,0.00,weatherlink.com 1.10,2013-10-11 17:44:00,
2013-10-11 12:59:00,72.6,58.0,29.99,South,169,5.0,11.0,61,0.00,,,0.00,weatherlink.com 1.10,2013-10-11 17:59:00,
2013-10-11 13:15:00,73.0,57.0,29.98,SSE,150,8.0,14.0,58,0.00,,,0.00,weatherlink.com 1.10,2013-10-11 18:15:00,
2013-10-11 13:30:00,73.8,58.0,29.98,SSE,163,4.0,13.0,58,0.00,,,0.00,weatherlink.com 1.10,2013-10-11 18:30:00,
2013-10-11 13:45:00,74.1,57.0,29.97,South,170,4.0,14.0,55,0.00,,,0.00,weatherlink.com 1.10,2013-10-11 18:45:00,
2013-10-11 14:00:00,74.1,57.0,29.96,SSW,206,6.0,11.0,56,0.00,,,0.00,weatherlink.com 1.10,2013-10-11 19:00:00,
2013-10-11 14:15:00,74.6,55.0,29.96,South,181,13.0,13.0,51,0.00,,,0.00,weatherlink.com 1.10,2013-10-11 19:15:00,
2013-10-11 14:30:00,74.9,56.0,29.95,SSW,197,3.0,13.0,53,0.00,,,0.00,weatherlink.com 1.10,2013-10-11 19:30:00,
2013-10-11 14:45:00,75.2,54.0,29.94,SSE,155,9.0,13.0,48,0.00,,,0.00,weatherlink.com 1.10,2013-10-11 19:45:00,
2013-10-11 15:00:00,75.1,55.0,29.93,SSE,148,5.0,11.0,49,0.00,,,0.00,weatherlink.com 1.10,2013-10-11 20:00:00,
2013-10-11 15:15:00,75.3,55.0,29.93,ESE,115,7.0,15.0,49,0.00,,,0.00,weatherlink.com 1.10,2013-10-11 20:15:00,
2013-10-11 15:30:00,75.3,54.0,29.93,SSE,162,10.0,14.0,48,0.00,,,0.00,weatherlink.com 1.10,2013-10-11 20:30:00,
2013-10-11 15:45:00,75.3,54.0,29.93,SE,134,8.0,14.0,48,0.00,,,0.00,weatherlink.com 1.10,2013-10-11 20:45:00,
2013-10-11 16:00:00,75.6,55.0,29.92,SSE,150,5.0,11.0,49,0.00,,,0.00,weatherlink.com 1.10,2013-10-11 21:00:00,
2013-10-11 16:15:00,75.1,54.0,29.92,South,175,10.0,11.0,48,0.00,,,0.00,weatherlink.com 1.10,2013-10-11 21:15:00,
2013-10-11 16:30:00,75.1,55.0,29.92,SE,139,5.0,13.0,49,0.00,,,0.00,weatherlink.com 1.10,2013-10-11 21:30:00,
2013-10-11 16:45:00,74.9,54.0,29.91,SSE,162,8.0,14.0,48,0.00,,,0.00,weatherlink.com 1.10,2013-10-11 21:45:00,
2013-10-11 17:00:00,74.6,55.0,29.91,SSE,150,5.0,12.0,50,0.00,,,0.00,weatherlink.com 1.10,2013-10-11 22:00:00,
2013-10-11 17:15:00,74.3,54.0,29.91,SE,142,6.0,12.0,50,0.00,,,0.00,weatherlink.com 1.10,2013-10-11 22:15:00,
2013-10-11 17:30:00,73.9,55.0,29.92,South,171,6.0,12.0,51,0.00,,,0.00,weatherlink.com 1.10,2013-10-11 22:30:00,
2013-10-11 17:45:00,73.1,55.0,29.92,South,186,3.0,8.0,53,0.00,,,0.00,weatherlink.com 1.10,2013-10-11 22:45:00,
2013-10-11 18:00:00,72.3,55.0,29.92,SSE,168,7.0,7.0,54,0.00,,,0.00,weatherlink.com 1.10,2013-10-11 23:00:00,
2013-10-11 18:15:00,71.4,54.0,29.92,SSE,164,3.0,7.0,55,0.00,,,0.00,weatherlink.com 1.10,2013-10-11 23:15:00,
2013-10-11 18:30:00,70.8,54.0,29.91,SE,144,5.0,8.0,56,0.00,,,0.00,weatherlink.com 1.10,2013-10-11 23:30:00,
2013-10-11 18:45:00,70.1,54.0,29.92,SSE,147,2.0,5.0,58,0.00,,,0.00,weatherlink.com 1.10,2013-10-11 23:45:00,
2013-10-11 19:00:00,69.2,55.0,29.92,SSE,153,3.0,5.0,60,0.00,,,0.00,weatherlink.com 1.10,2013-10-12 00:00:00,
2013-10-11 19:15:00,68.8,54.0,29.92,SSE,155,3.0,6.0,60,0.00,,,0.00,weatherlink.com 1.10,2013-10-12 00:15:00,
2013-10-11 19:30:00,67.9,54.0,29.93,SSE,155,0.0,4.0,62,0.00,,,0.00,weatherlink.com 1.10,2013-10-12 00:30:00,
2013-10-11 19:45:00,66.9,54.0,29.93,SSE,157,2.0,5.0,64,0.00,,,0.00,weatherlink.com 1.10,2013-10-12 00:45:00,
2013-10-11 20:00:00,66.6,54.0,29.93,SE,138,2.0,4.0,64,0.00,,,0.00,weatherlink.com 1.10,2013-10-12 01:00:00,
2013-10-11 20:15:00,66.1,54.0,29.94,SE,124,2.0,4.0,65,0.00,,,0.00,weatherlink.com 1.10,2013-10-12 01:15:00,
2013-10-11 20:30:00,65.4,54.0,29.94,SE,137,4.0,4.0,66,0.00,,,0.00,weatherlink.com 1.10,2013-10-12 01:30:00,
2013-10-11 20:45:00,65.1,54.0,29.94,SE,143,2.0,5.0,67,0.00,,,0.00,weatherlink.com 1.10,2013-10-12 01:45:00,
2013-10-11 21:00:00,64.4,54.0,29.94,SE,145,4.0,5.0,68,0.00,,,0.00,weatherlink.com 1.10,2013-10-12 02:00:00,
2013-10-11 21:15:00,64.1,54.0,29.95,SE,144,1.0,6.0,69,0.00,,,0.00,weatherlink.com 1.10,2013-10-12 02:15:00,
2013-10-11 21:30:00,63.9,54.0,29.95,SE,142,3.0,6.0,69,0.00,,,0.00,weatherlink.com 1.10,2013-10-12 02:30:00,
2013-10-11 21:45:00,63.6,54.0,29.95,SE,146,5.0,6.0,70,0.00,,,0.00,weatherlink.com 1.10,2013-10-12 02:45:00,
2013-10-11 22:00:00,63.3,54.0,29.94,SSE,162,6.0,8.0,71,0.00,,,0.00,weatherlink.com 1.10,2013-10-12 03:00:00,
2013-10-11 22:15:00,63.4,54.0,29.94,SE,142,4.0,10.0,71,0.00,,,0.00,weatherlink.com 1.10,2013-10-12 03:15:00,
2013-10-11 22:30:00,63.6,54.0,29.93,SSE,148,3.0,8.0,71,0.00,,,0.00,weatherlink.com 1.10,2013-10-12 03:30:00,
2013-10-11 22:45:00,63.3,54.0,29.93,SE,140,4.0,9.0,72,0.00,,,0.00,weatherlink.com 1.10,2013-10-12 03:45:00,
2013-10-11 23:00:00,62.7,54.0,29.94,SE,138,5.0,8.0,74,0.00,,,0.00,weatherlink.com 1.10,2013-10-12 04:00:00,
2013-10-11 23:15:00,62.2,54.0,29.93,South,190,2.0,6.0,75,0.00,,,0.00,weatherlink.com 1.10,2013-10-12 04:15:00,
2013-10-11 23:30:00,62.0,54.0,29.93,SSE,150,3.0,6.0,76,0.00,,,0.00,weatherlink.com 1.10,2013-10-12 04:30:00,
2013-10-11 23:45:00,61.6,54.0,29.93,SE,139,3.0,7.0,77,0.00,,,0.00,weatherlink.com 1.10,2013-10-12 04:45:00,